sensor_id;sensor_type;location;lat;lon;timestamp;temperature;humidity
71291;DHT22;59073;51.994;4.448;2022-12-17T00:01:24;-1.46;85.32
71291;DHT22;59073;51.994;4.448;2022-12-17T00:04:08;-1.24;85.02
71291;DHT22;59073;51.994;4.448;2022-12-17T00:06:52;-1.11;84.29
71291;DHT22;59073;51.994;4.448;2022-12-17T00:09:36;-1.08;83.96
71291;DHT22;59073;51.994;4.448;2022-12-17T00:12:20;-1.35;83.99
71291;DHT22;59073;51.994;4.448;2022-12-17T00:15:05;-1.49;84.93
71291;DHT22;59073;51.994;4.448;2022-12-17T00:17:49;-1.58;85.54
71291;DHT22;59073;51.994;4.448;2022-12-17T00:20:33;-1.48;85.82
71291;DHT22;59073;51.994;4.448;2022-12-17T00:23:17;-1.35;85.27
71291;DHT22;59073;51.994;4.448;2022-12-17T00:26:01;-1.38;85.63
71291;DHT22;59073;51.994;4.448;2022-12-17T00:28:45;-1.38;85.51
71291;DHT22;59073;51.994;4.448;2022-12-17T00:31:29;-1.24;85.18
71291;DHT22;59073;51.994;4.448;2022-12-17T00:34:14;-1.12;85.15
71291;DHT22;59073;51.994;4.448;2022-12-17T00:36:58;-1.02;84.75
71291;DHT22;59073;51.994;4.448;2022-12-17T00:39:42;-0.77;84.04
71291;DHT22;59073;51.994;4.448;2022-12-17T00:42:26;-0.71;83.53
71291;DHT22;59073;51.994;4.448;2022-12-17T00:45:10;-0.62;82.90
71291;DHT22;59073;51.994;4.448;2022-12-17T00:47:54;-0.48;82.55
71291;DHT22;59073;51.994;4.448;2022-12-17T00:50:38;-0.64;82.37
71291;DHT22;59073;51.994;4.448;2022-12-17T00:53:22;-1.08;83.30
71291;DHT22;59073;51.994;4.448;2022-12-17T00:56:07;-1.49;84.36
71291;DHT22;59073;51.994;4.448;2022-12-17T00:58:51;-1.73;85.83
71291;DHT22;59073;51.994;4.448;2022-12-17T01:01:35;-1.73;86.46
71291;DHT22;59073;51.994;4.448;2022-12-17T01:04:19;-1.52;86.41
71291;DHT22;59073;51.994;4.448;2022-12-17T01:07:03;-1.35;85.89
71291;DHT22;59073;51.994;4.448;2022-12-17T01:09:47;-1.22;84.97
71291;DHT22;59073;51.994;4.448;2022-12-17T01:12:31;-1.22;85.10
71291;DHT22;59073;51.994;4.448;2022-12-17T01:15:15;-1.32;85.34
71291;DHT22;59073;51.994;4.448;2022-12-17T01:17:59;-1.22;84.97
71291;DHT22;59073;51.994;4.448;2022-12-17T01:20:43;-1.22;85.25
71291;DHT22;59073;51.994;4.448;2022-12-17T01:23:27;-1.16;85.41
71291;DHT22;59073;51.994;4.448;2022-12-17T01:26:11;-0.94;84.72
71291;DHT22;59073;51.994;4.448;2022-12-17T01:28:58;-1.14;84.97
71291;DHT22;59073;51.994;4.448;2022-12-17T01:31:42;-1.21;85.12
71291;DHT22;59073;51.994;4.448;2022-12-17T01:34:26;-1.11;84.53
71291;DHT22;59073;51.994;4.448;2022-12-17T01:37:10;-1.18;84.66
71291;DHT22;59073;51.994;4.448;2022-12-17T01:39:54;-1.19;85.48
71291;DHT22;59073;51.994;4.448;2022-12-17T01:42:44;-1.12;85.23
71291;DHT22;59073;51.994;4.448;2022-12-17T01:45:37;-1.36;85.70
71291;DHT22;59073;51.994;4.448;2022-12-17T01:48:31;-1.28;85.67
71291;DHT22;59073;51.994;4.448;2022-12-17T01:51:17;-1.16;85.65
71291;DHT22;59073;51.994;4.448;2022-12-17T01:54:02;-1.14;85.01
71291;DHT22;59073;51.994;4.448;2022-12-17T01:56:48;-1.28;85.58
71291;DHT22;59073;51.994;4.448;2022-12-17T01:59:49;-1.34;85.67
71291;DHT22;59073;51.994;4.448;2022-12-17T02:02:35;-1.30;85.65
71291;DHT22;59073;51.994;4.448;2022-12-17T02:05:31;-1.65;86.04
71291;DHT22;59073;51.994;4.448;2022-12-17T02:08:24;-1.83;87.00
71291;DHT22;59073;51.994;4.448;2022-12-17T02:14:41;-1.84;87.70
71291;DHT22;59073;51.994;4.448;2022-12-17T02:17:39;-2.00;87.55
71291;DHT22;59073;51.994;4.448;2022-12-17T02:20:42;-2.01;88.04
71291;DHT22;59073;51.994;4.448;2022-12-17T02:23:45;-1.96;87.92
71291;DHT22;59073;51.994;4.448;2022-12-17T02:26:52;-2.18;88.31
71291;DHT22;59073;51.994;4.448;2022-12-17T02:29:42;-2.15;88.58
71291;DHT22;59073;51.994;4.448;2022-12-17T02:32:28;-2.00;88.22
71291;DHT22;59073;51.994;4.448;2022-12-17T02:35:16;-1.89;87.89
71291;DHT22;59073;51.994;4.448;2022-12-17T02:38:00;-1.72;87.41
71291;DHT22;59073;51.994;4.448;2022-12-17T02:40:46;-1.94;87.16
71291;DHT22;59073;51.994;4.448;2022-12-17T02:43:32;-2.05;87.42
71291;DHT22;59073;51.994;4.448;2022-12-17T02:46:19;-1.94;87.44
71291;DHT22;59073;51.994;4.448;2022-12-17T02:49:08;-1.63;86.81
71291;DHT22;59073;51.994;4.448;2022-12-17T02:51:53;-1.58;85.71
71291;DHT22;59073;51.994;4.448;2022-12-17T02:54:38;-1.67;85.22
71291;DHT22;59073;51.994;4.448;2022-12-17T02:57:22;-1.76;85.30
71291;DHT22;59073;51.994;4.448;2022-12-17T03:00:06;-1.93;85.87
71291;DHT22;59073;51.994;4.448;2022-12-17T03:02:50;-1.89;86.26
71291;DHT22;59073;51.994;4.448;2022-12-17T03:05:34;-1.96;86.38
71291;DHT22;59073;51.994;4.448;2022-12-17T03:08:19;-1.84;86.55
71291;DHT22;59073;51.994;4.448;2022-12-17T03:11:03;-1.69;85.92
71291;DHT22;59073;51.994;4.448;2022-12-17T03:13:47;-1.72;85.60
71291;DHT22;59073;51.994;4.448;2022-12-17T03:16:31;-1.49;85.25
71291;DHT22;59073;51.994;4.448;2022-12-17T03:19:15;-1.43;85.03
71291;DHT22;59073;51.994;4.448;2022-12-17T03:21:59;-1.35;84.59
71291;DHT22;59073;51.994;4.448;2022-12-17T03:24:43;-1.41;84.59
71291;DHT22;59073;51.994;4.448;2022-12-17T03:27:26;-1.56;85.23
71291;DHT22;59073;51.994;4.448;2022-12-17T03:30:11;-1.45;85.13
71291;DHT22;59073;51.994;4.448;2022-12-17T03:32:54;-1.31;84.90
71291;DHT22;59073;51.994;4.448;2022-12-17T03:35:39;-1.14;84.33
71291;DHT22;59073;51.994;4.448;2022-12-17T03:38:23;-1.15;84.21
71291;DHT22;59073;51.994;4.448;2022-12-17T03:41:07;-1.02;83.89
71291;DHT22;59073;51.994;4.448;2022-12-17T03:43:51;-1.01;83.47
71291;DHT22;59073;51.994;4.448;2022-12-17T03:46:35;-0.93;83.41
71291;DHT22;59073;51.994;4.448;2022-12-17T03:49:19;-0.84;83.69
71291;DHT22;59073;51.994;4.448;2022-12-17T03:52:03;-0.84;83.26
71291;DHT22;59073;51.994;4.448;2022-12-17T03:54:47;-0.93;83.68
71291;DHT22;59073;51.994;4.448;2022-12-17T03:57:31;-1.02;83.55
71291;DHT22;59073;51.994;4.448;2022-12-17T04:00:15;-1.22;84.15
71291;DHT22;59073;51.994;4.448;2022-12-17T04:02:59;-1.14;84.51
71291;DHT22;59073;51.994;4.448;2022-12-17T04:05:43;-1.16;84.43
71291;DHT22;59073;51.994;4.448;2022-12-17T04:08:27;-1.02;84.56
71291;DHT22;59073;51.994;4.448;2022-12-17T04:11:11;-1.01;84.05
71291;DHT22;59073;51.994;4.448;2022-12-17T04:13:55;-1.04;84.43
71291;DHT22;59073;51.994;4.448;2022-12-17T04:16:39;-1.08;84.17
71291;DHT22;59073;51.994;4.448;2022-12-17T04:19:23;-1.24;84.84
71291;DHT22;59073;51.994;4.448;2022-12-17T04:22:07;-1.18;85.23
71291;DHT22;59073;51.994;4.448;2022-12-17T04:24:51;-1.27;84.75
71291;DHT22;59073;51.994;4.448;2022-12-17T04:27:35;-1.39;85.75
71291;DHT22;59073;51.994;4.448;2022-12-17T04:30:19;-1.55;86.26
71291;DHT22;59073;51.994;4.448;2022-12-17T04:33:03;-1.63;86.92
71291;DHT22;59073;51.994;4.448;2022-12-17T04:35:47;-1.36;87.13
71291;DHT22;59073;51.994;4.448;2022-12-17T04:38:31;-1.16;85.98
71291;DHT22;59073;51.994;4.448;2022-12-17T04:41:15;-1.05;85.40
71291;DHT22;59073;51.994;4.448;2022-12-17T04:43:59;-1.18;85.07
71291;DHT22;59073;51.994;4.448;2022-12-17T04:46:43;-1.12;84.69
71291;DHT22;59073;51.994;4.448;2022-12-17T04:49:27;-0.97;84.47
71291;DHT22;59073;51.994;4.448;2022-12-17T04:52:11;-0.87;83.72
71291;DHT22;59073;51.994;4.448;2022-12-17T04:54:55;-0.87;83.17
71291;DHT22;59073;51.994;4.448;2022-12-17T04:57:39;-1.02;83.35
71291;DHT22;59073;51.994;4.448;2022-12-17T05:00:23;-1.19;84.27
71291;DHT22;59073;51.994;4.448;2022-12-17T05:03:13;-1.15;84.77
71291;DHT22;59073;51.994;4.448;2022-12-17T05:05:59;-0.97;83.99
71291;DHT22;59073;51.994;4.448;2022-12-17T05:08:43;-0.91;83.58
71291;DHT22;59073;51.994;4.448;2022-12-17T05:11:27;-0.88;83.57
71291;DHT22;59073;51.994;4.448;2022-12-17T05:14:11;-0.83;83.26
71291;DHT22;59073;51.994;4.448;2022-12-17T05:16:55;-1.22;84.18
71291;DHT22;59073;51.994;4.448;2022-12-17T05:19:39;-1.32;85.62
71291;DHT22;59073;51.994;4.448;2022-12-17T05:22:23;-1.27;86.14
71291;DHT22;59073;51.994;4.448;2022-12-17T05:25:08;-1.18;86.30
71291;DHT22;59073;51.994;4.448;2022-12-17T05:27:52;-1.08;86.30
71291;DHT22;59073;51.994;4.448;2022-12-17T05:30:36;-0.90;85.73
71291;DHT22;59073;51.994;4.448;2022-12-17T05:33:20;-0.87;85.08
71291;DHT22;59073;51.994;4.448;2022-12-17T05:36:04;-0.79;84.47
71291;DHT22;59073;51.994;4.448;2022-12-17T05:38:48;-0.87;84.85
71291;DHT22;59073;51.994;4.448;2022-12-17T05:41:33;-0.94;85.02
71291;DHT22;59073;51.994;4.448;2022-12-17T05:44:17;-0.73;84.40
71291;DHT22;59073;51.994;4.448;2022-12-17T05:47:02;-0.76;84.20
71291;DHT22;59073;51.994;4.448;2022-12-17T05:49:46;-0.64;84.07
71291;DHT22;59073;51.994;4.448;2022-12-17T05:52:30;-0.54;83.44
71291;DHT22;59073;51.994;4.448;2022-12-17T05:55:14;-0.44;83.19
71291;DHT22;59073;51.994;4.448;2022-12-17T05:58:03;-0.42;82.54
71291;DHT22;59073;51.994;4.448;2022-12-17T06:00:48;-0.64;82.21
71291;DHT22;59073;51.994;4.448;2022-12-17T06:03:32;-0.69;82.82
71291;DHT22;59073;51.994;4.448;2022-12-17T06:06:17;-0.91;83.92
71291;DHT22;59073;51.994;4.448;2022-12-17T06:09:02;-1.11;85.07
71291;DHT22;59073;51.994;4.448;2022-12-17T06:11:47;-1.09;85.64
71291;DHT22;59073;51.994;4.448;2022-12-17T06:14:31;-1.30;86.25
71291;DHT22;59073;51.994;4.448;2022-12-17T06:17:15;-1.34;87.14
71291;DHT22;59073;51.994;4.448;2022-12-17T06:19:59;-1.15;87.07
71291;DHT22;59073;51.994;4.448;2022-12-17T06:22:46;-1.19;86.80
71291;DHT22;59073;51.994;4.448;2022-12-17T06:25:30;-1.01;86.68
71291;DHT22;59073;51.994;4.448;2022-12-17T06:28:14;-1.00;86.75
71291;DHT22;59073;51.994;4.448;2022-12-17T06:30:58;-0.90;86.33
71291;DHT22;59073;51.994;4.448;2022-12-17T06:33:42;-0.83;86.06
71291;DHT22;59073;51.994;4.448;2022-12-17T06:36:26;-0.77;85.69
71291;DHT22;59073;51.994;4.448;2022-12-17T06:39:10;-0.77;85.75
71291;DHT22;59073;51.994;4.448;2022-12-17T06:41:55;-0.56;85.15
71291;DHT22;59073;51.994;4.448;2022-12-17T06:44:39;-0.85;85.19
71291;DHT22;59073;51.994;4.448;2022-12-17T06:47:23;-0.77;85.48
71291;DHT22;59073;51.994;4.448;2022-12-17T06:50:07;-0.63;85.10
71291;DHT22;59073;51.994;4.448;2022-12-17T06:52:59;-0.49;84.41
71291;DHT22;59073;51.994;4.448;2022-12-17T06:55:43;-0.43;84.08
71291;DHT22;59073;51.994;4.448;2022-12-17T06:58:27;-0.32;83.52
71291;DHT22;59073;51.994;4.448;2022-12-17T07:01:11;-0.30;82.95
71291;DHT22;59073;51.994;4.448;2022-12-17T07:03:55;-0.36;82.64
71291;DHT22;59073;51.994;4.448;2022-12-17T07:06:39;-0.59;82.63
71291;DHT22;59073;51.994;4.448;2022-12-17T07:09:23;-0.93;83.57
71291;DHT22;59073;51.994;4.448;2022-12-17T07:12:07;-1.31;84.31
71291;DHT22;59073;51.994;4.448;2022-12-17T07:14:51;-1.01;84.72
71291;DHT22;59073;51.994;4.448;2022-12-17T07:17:35;-1.00;84.21
71291;DHT22;59073;51.994;4.448;2022-12-17T07:20:19;-1.05;85.27
71291;DHT22;59073;51.994;4.448;2022-12-17T07:23:03;-1.00;85.29
71291;DHT22;59073;51.994;4.448;2022-12-17T07:25:47;-0.94;84.50
71291;DHT22;59073;51.994;4.448;2022-12-17T07:28:31;-0.83;84.51
71291;DHT22;59073;51.994;4.448;2022-12-17T07:31:15;-0.80;84.04
71291;DHT22;59073;51.994;4.448;2022-12-17T07:33:59;-0.74;83.39
71291;DHT22;59073;51.994;4.448;2022-12-17T07:36:43;-0.81;83.44
71291;DHT22;59073;51.994;4.448;2022-12-17T07:39:27;-0.87;84.14
71291;DHT22;59073;51.994;4.448;2022-12-17T07:42:11;-0.81;83.96
71291;DHT22;59073;51.994;4.448;2022-12-17T07:44:55;-0.79;83.93
71291;DHT22;59073;51.994;4.448;2022-12-17T07:47:39;-0.62;83.96
71291;DHT22;59073;51.994;4.448;2022-12-17T07:50:23;-0.54;83.25
71291;DHT22;59073;51.994;4.448;2022-12-17T07:53:07;-0.37;82.95
71291;DHT22;59073;51.994;4.448;2022-12-17T07:55:51;-0.18;82.75
71291;DHT22;59073;51.994;4.448;2022-12-17T07:58:35;0.02;81.55
71291;DHT22;59073;51.994;4.448;2022-12-17T08:01:19;-0.02;80.56
71291;DHT22;59073;51.994;4.448;2022-12-17T08:04:03;-0.42;81.46
71291;DHT22;59073;51.994;4.448;2022-12-17T08:06:49;-0.42;82.28
71291;DHT22;59073;51.994;4.448;2022-12-17T08:09:33;-0.34;82.57
71291;DHT22;59073;51.994;4.448;2022-12-17T08:12:17;-0.37;82.34
71291;DHT22;59073;51.994;4.448;2022-12-17T08:15:01;-0.53;82.67
71291;DHT22;59073;51.994;4.448;2022-12-17T08:17:45;-0.49;82.92
71291;DHT22;59073;51.994;4.448;2022-12-17T08:20:29;-0.37;82.64
71291;DHT22;59073;51.994;4.448;2022-12-17T08:23:13;-0.36;82.33
71291;DHT22;59073;51.994;4.448;2022-12-17T08:25:57;-0.33;82.08
71291;DHT22;59073;51.994;4.448;2022-12-17T08:28:41;-0.43;82.80
71291;DHT22;59073;51.994;4.448;2022-12-17T08:31:25;-0.30;82.61
71291;DHT22;59073;51.994;4.448;2022-12-17T08:34:10;-0.22;82.05
71291;DHT22;59073;51.994;4.448;2022-12-17T08:36:54;-0.06;81.81
71291;DHT22;59073;51.994;4.448;2022-12-17T08:39:38;0.16;81.21
71291;DHT22;59073;51.994;4.448;2022-12-17T08:42:22;0.39;80.43
71291;DHT22;59073;51.994;4.448;2022-12-17T08:45:06;0.66;80.09
71291;DHT22;59073;51.994;4.448;2022-12-17T08:47:50;0.80;78.97
71291;DHT22;59073;51.994;4.448;2022-12-17T08:50:34;0.78;78.96
71291;DHT22;59073;51.994;4.448;2022-12-17T08:53:18;0.84;78.45
71291;DHT22;59073;51.994;4.448;2022-12-17T08:56:02;0.98;78.44
71291;DHT22;59073;51.994;4.448;2022-12-17T08:58:46;0.87;78.31
71291;DHT22;59073;51.994;4.448;2022-12-17T09:01:30;1.01;78.42
71291;DHT22;59073;51.994;4.448;2022-12-17T09:04:14;1.17;77.69
71291;DHT22;59073;51.994;4.448;2022-12-17T09:06:59;1.29;77.56
71291;DHT22;59073;51.994;4.448;2022-12-17T09:09:43;1.29;76.91
71291;DHT22;59073;51.994;4.448;2022-12-17T09:12:27;1.42;77.06
71291;DHT22;59073;51.994;4.448;2022-12-17T09:15:11;1.56;76.67
71291;DHT22;59073;51.994;4.448;2022-12-17T09:17:55;1.76;76.11
71291;DHT22;59073;51.994;4.448;2022-12-17T09:20:39;1.72;76.02
71291;DHT22;59073;51.994;4.448;2022-12-17T09:23:26;1.70;75.70
71291;DHT22;59073;51.994;4.448;2022-12-17T09:26:10;1.66;75.88
71291;DHT22;59073;51.994;4.448;2022-12-17T09:28:54;1.63;75.98
71291;DHT22;59073;51.994;4.448;2022-12-17T09:31:38;1.77;76.19
71291;DHT22;59073;51.994;4.448;2022-12-17T09:34:22;1.81;75.69
71291;DHT22;59073;51.994;4.448;2022-12-17T09:37:06;1.86;75.95
71291;DHT22;59073;51.994;4.448;2022-12-17T09:39:50;1.91;75.58
71291;DHT22;59073;51.994;4.448;2022-12-17T09:42:48;1.89;75.70
71291;DHT22;59073;51.994;4.448;2022-12-17T09:45:49;2.10;75.72
71291;DHT22;59073;51.994;4.448;2022-12-17T09:51:43;2.40;74.59
71291;DHT22;59073;51.994;4.448;2022-12-17T09:54:49;2.59;74.72
71291;DHT22;59073;51.994;4.448;2022-12-17T09:57:36;2.72;73.77
71291;DHT22;59073;51.994;4.448;2022-12-17T10:00:26;2.71;73.21
71291;DHT22;59073;51.994;4.448;2022-12-17T10:03:21;2.56;73.83
71291;DHT22;59073;51.994;4.448;2022-12-17T10:06:26;2.61;73.87
71291;DHT22;59073;51.994;4.448;2022-12-17T10:09:14;2.38;73.95
71291;DHT22;59073;51.994;4.448;2022-12-17T10:12:10;2.48;74.24
71291;DHT22;59073;51.994;4.448;2022-12-17T10:14:58;2.40;73.73
71291;DHT22;59073;51.994;4.448;2022-12-17T10:17:44;2.56;73.79
71291;DHT22;59073;51.994;4.448;2022-12-17T10:20:49;2.49;73.88
71291;DHT22;59073;51.994;4.448;2022-12-17T10:23:36;2.56;74.39
71291;DHT22;59073;51.994;4.448;2022-12-17T10:26:24;2.68;74.03
71291;DHT22;59073;51.994;4.448;2022-12-17T10:29:12;2.72;73.08
71291;DHT22;59073;51.994;4.448;2022-12-17T10:31:59;2.82;73.81
71291;DHT22;59073;51.994;4.448;2022-12-17T10:34:54;2.99;73.63
71291;DHT22;59073;51.994;4.448;2022-12-17T10:37:51;2.92;72.44
71291;DHT22;59073;51.994;4.448;2022-12-17T10:40:35;2.88;72.98
71291;DHT22;59073;51.994;4.448;2022-12-17T10:43:32;2.89;72.96
71291;DHT22;59073;51.994;4.448;2022-12-17T10:46:28;2.86;73.44
71291;DHT22;59073;51.994;4.448;2022-12-17T10:49:16;2.97;73.45
71291;DHT22;59073;51.994;4.448;2022-12-17T10:58:03;2.97;73.57
71291;DHT22;59073;51.994;4.448;2022-12-17T11:00:59;2.97;72.71
71291;DHT22;59073;51.994;4.448;2022-12-17T11:03:55;3.03;73.23
71291;DHT22;59073;51.994;4.448;2022-12-17T11:06:45;2.96;73.86
71291;DHT22;59073;51.994;4.448;2022-12-17T11:09:46;2.99;73.67
71291;DHT22;59073;51.994;4.448;2022-12-17T11:12:42;2.73;74.03
71291;DHT22;59073;51.994;4.448;2022-12-17T11:15:53;2.72;73.82
71291;DHT22;59073;51.994;4.448;2022-12-17T11:21:44;2.76;74.58
71291;DHT22;59073;51.994;4.448;2022-12-17T11:24:45;2.92;74.67
71291;DHT22;59073;51.994;4.448;2022-12-17T11:27:38;2.99;74.25
71291;DHT22;59073;51.994;4.448;2022-12-17T11:46:12;3.12;73.72
71291;DHT22;59073;51.994;4.448;2022-12-17T11:50:00;3.24;73.40
71291;DHT22;59073;51.994;4.448;2022-12-17T11:56:23;3.19;73.65
71291;DHT22;59073;51.994;4.448;2022-12-17T12:00:00;2.93;73.62
71291;DHT22;59073;51.994;4.448;2022-12-17T12:03:19;2.83;75.01
71291;DHT22;59073;51.994;4.448;2022-12-17T12:15:41;3.28;73.58
71291;DHT22;59073;51.994;4.448;2022-12-17T12:18:42;3.37;73.45
71291;DHT22;59073;51.994;4.448;2022-12-17T12:24:53;3.26;73.94
71291;DHT22;59073;51.994;4.448;2022-12-17T12:33:52;3.21;73.73
71291;DHT22;59073;51.994;4.448;2022-12-17T12:36:39;3.19;73.75
71291;DHT22;59073;51.994;4.448;2022-12-17T12:39:35;3.31;73.97
71291;DHT22;59073;51.994;4.448;2022-12-17T12:42:44;3.34;73.89
71291;DHT22;59073;51.994;4.448;2022-12-17T12:45:37;3.19;73.82
71291;DHT22;59073;51.994;4.448;2022-12-17T12:51:49;3.35;73.53
71291;DHT22;59073;51.994;4.448;2022-12-17T12:57:36;3.14;74.57
71291;DHT22;59073;51.994;4.448;2022-12-17T13:00:25;3.14;74.87
71291;DHT22;59073;51.994;4.448;2022-12-17T13:03:24;3.04;74.58
71291;DHT22;59073;51.994;4.448;2022-12-17T13:06:11;2.86;74.93
71291;DHT22;59073;51.994;4.448;2022-12-17T13:08:37;2.88;74.81
71291;DHT22;59073;51.994;4.448;2022-12-17T13:11:27;2.85;75.24
71291;DHT22;59073;51.994;4.448;2022-12-17T13:14:04;2.73;75.14
71291;DHT22;59073;51.994;4.448;2022-12-17T13:19:32;2.68;75.18
71291;DHT22;59073;51.994;4.448;2022-12-17T13:24:45;2.59;76.01
71291;DHT22;59073;51.994;4.448;2022-12-17T13:33:11;2.51;75.91
71291;DHT22;59073;51.994;4.448;2022-12-17T13:36:03;2.51;75.83
71291;DHT22;59073;51.994;4.448;2022-12-17T13:38:58;2.51;75.77
71291;DHT22;59073;51.994;4.448;2022-12-17T13:41:32;2.56;75.81
71291;DHT22;59073;51.994;4.448;2022-12-17T13:44:42;2.46;76.01
71291;DHT22;59073;51.994;4.448;2022-12-17T13:47:33;2.66;75.86
71291;DHT22;59073;51.994;4.448;2022-12-17T13:50:20;2.65;75.84
71291;DHT22;59073;51.994;4.448;2022-12-17T13:53:08;2.55;75.63
71291;DHT22;59073;51.994;4.448;2022-12-17T13:55:34;2.52;75.70
71291;DHT22;59073;51.994;4.448;2022-12-17T13:58:01;2.63;75.59
71291;DHT22;59073;51.994;4.448;2022-12-17T14:00:30;2.66;75.72
71291;DHT22;59073;51.994;4.448;2022-12-17T14:03:08;2.56;76.09
71291;DHT22;59073;51.994;4.448;2022-12-17T14:05:37;2.49;75.90
71291;DHT22;59073;51.994;4.448;2022-12-17T14:08:06;2.38;76.34
71291;DHT22;59073;51.994;4.448;2022-12-17T14:10:32;2.18;76.62
71291;DHT22;59073;51.994;4.448;2022-12-17T14:13:05;2.18;76.84
71291;DHT22;59073;51.994;4.448;2022-12-17T14:15:31;2.13;76.75
71291;DHT22;59073;51.994;4.448;2022-12-17T14:17:58;2.24;76.74
71291;DHT22;59073;51.994;4.448;2022-12-17T14:20:33;2.17;76.88
71291;DHT22;59073;51.994;4.448;2022-12-17T14:23:04;2.13;76.96
71291;DHT22;59073;51.994;4.448;2022-12-17T14:25:39;2.00;77.22
71291;DHT22;59073;51.994;4.448;2022-12-17T14:28:28;2.07;77.26
71291;DHT22;59073;51.994;4.448;2022-12-17T14:31:07;2.21;76.87
71291;DHT22;59073;51.994;4.448;2022-12-17T14:33:41;2.22;76.90
71291;DHT22;59073;51.994;4.448;2022-12-17T14:36:21;2.17;77.06
71291;DHT22;59073;51.994;4.448;2022-12-17T14:39:16;2.00;77.14
71291;DHT22;59073;51.994;4.448;2022-12-17T14:41:42;2.00;77.54
71291;DHT22;59073;51.994;4.448;2022-12-17T14:44:28;1.87;77.76
71291;DHT22;59073;51.994;4.448;2022-12-17T14:47:10;1.93;77.93
71291;DHT22;59073;51.994;4.448;2022-12-17T14:52:26;1.89;78.00
71291;DHT22;59073;51.994;4.448;2022-12-17T14:54:52;1.84;78.18
71291;DHT22;59073;51.994;4.448;2022-12-17T14:57:20;1.96;77.65
71291;DHT22;59073;51.994;4.448;2022-12-17T14:59:47;1.86;78.11
71291;DHT22;59073;51.994;4.448;2022-12-17T15:02:25;1.89;78.06
71291;DHT22;59073;51.994;4.448;2022-12-17T15:05:00;1.96;77.63
71291;DHT22;59073;51.994;4.448;2022-12-17T15:07:30;1.96;77.66
71291;DHT22;59073;51.994;4.448;2022-12-17T15:09:56;2.03;77.09
71291;DHT22;59073;51.994;4.448;2022-12-17T15:12:23;2.04;76.98
71291;DHT22;59073;51.994;4.448;2022-12-17T15:14:49;2.01;76.87
71291;DHT22;59073;51.994;4.448;2022-12-17T15:17:15;1.90;77.09
71291;DHT22;59073;51.994;4.448;2022-12-17T15:19:41;1.79;77.52
71291;DHT22;59073;51.994;4.448;2022-12-17T15:22:16;1.81;77.55
71291;DHT22;59073;51.994;4.448;2022-12-17T15:24:49;1.77;77.52
71291;DHT22;59073;51.994;4.448;2022-12-17T15:27:16;1.69;77.77
71291;DHT22;59073;51.994;4.448;2022-12-17T15:29:45;1.41;78.57
71291;DHT22;59073;51.994;4.448;2022-12-17T15:32:19;1.25;79.31
71291;DHT22;59073;51.994;4.448;2022-12-17T15:34:45;1.34;79.16
71291;DHT22;59073;51.994;4.448;2022-12-17T15:37:10;1.39;79.09
71291;DHT22;59073;51.994;4.448;2022-12-17T15:39:36;1.38;78.78
71291;DHT22;59073;51.994;4.448;2022-12-17T15:42:01;1.41;78.71
71291;DHT22;59073;51.994;4.448;2022-12-17T15:44:45;1.22;79.18
71291;DHT22;59073;51.994;4.448;2022-12-17T15:47:11;1.12;79.74
71291;DHT22;59073;51.994;4.448;2022-12-17T15:49:39;0.92;80.39
71291;DHT22;59073;51.994;4.448;2022-12-17T15:52:09;0.83;80.77
71291;DHT22;59073;51.994;4.448;2022-12-17T15:54:49;0.67;80.99
71291;DHT22;59073;51.994;4.448;2022-12-17T15:57:14;0.63;81.38
71291;DHT22;59073;51.994;4.448;2022-12-17T15:59:40;0.63;81.37
71291;DHT22;59073;51.994;4.448;2022-12-17T16:02:08;0.61;81.15
71291;DHT22;59073;51.994;4.448;2022-12-17T16:04:36;0.64;81.19
71291;DHT22;59073;51.994;4.448;2022-12-17T16:07:03;0.70;81.19
71291;DHT22;59073;51.994;4.448;2022-12-17T16:09:29;0.80;80.33
71291;DHT22;59073;51.994;4.448;2022-12-17T16:11:56;0.71;80.48
71291;DHT22;59073;51.994;4.448;2022-12-17T16:14:27;0.71;80.28
71291;DHT22;59073;51.994;4.448;2022-12-17T16:16:53;0.77;80.15
71291;DHT22;59073;51.994;4.448;2022-12-17T16:19:18;0.69;80.40
71291;DHT22;59073;51.994;4.448;2022-12-17T16:21:47;0.47;81.04
71291;DHT22;59073;51.994;4.448;2022-12-17T16:24:12;0.23;82.10
71291;DHT22;59073;51.994;4.448;2022-12-17T16:26:38;0.28;82.08
71291;DHT22;59073;51.994;4.448;2022-12-17T16:29:03;0.29;81.71
71291;DHT22;59073;51.994;4.448;2022-12-17T16:31:29;0.32;81.58
71291;DHT22;59073;51.994;4.448;2022-12-17T16:33:54;0.19;81.80
71291;DHT22;59073;51.994;4.448;2022-12-17T16:36:21;0.05;82.38
71291;DHT22;59073;51.994;4.448;2022-12-17T16:38:49;0.05;82.49
71291;DHT22;59073;51.994;4.448;2022-12-17T16:41:17;0.01;82.53
71291;DHT22;59073;51.994;4.448;2022-12-17T16:43:44;0.03;82.65
71291;DHT22;59073;51.994;4.448;2022-12-17T16:48:51;-0.08;82.93
71291;DHT22;59073;51.994;4.448;2022-12-17T16:51:19;-0.01;82.74
71291;DHT22;59073;51.994;4.448;2022-12-17T16:53:45;0.05;82.23
71291;DHT22;59073;51.994;4.448;2022-12-17T16:56:15;0.02;82.23
71291;DHT22;59073;51.994;4.448;2022-12-17T16:58:41;0.01;82.37
71291;DHT22;59073;51.994;4.448;2022-12-17T17:01:06;0.09;81.92
71291;DHT22;59073;51.994;4.448;2022-12-17T17:03:32;0.15;81.84
71291;DHT22;59073;51.994;4.448;2022-12-17T17:06:00;0.28;81.64
71291;DHT22;59073;51.994;4.448;2022-12-17T17:08:28;0.38;81.14
71291;DHT22;59073;51.994;4.448;2022-12-17T17:10:53;0.39;80.83
71291;DHT22;59073;51.994;4.448;2022-12-17T17:13:19;0.16;80.69
71291;DHT22;59073;51.994;4.448;2022-12-17T17:15:44;0.02;81.80
71291;DHT22;59073;51.994;4.448;2022-12-17T17:18:10;-0.03;82.03
71291;DHT22;59073;51.994;4.448;2022-12-17T17:20:35;-0.03;82.11
71291;DHT22;59073;51.994;4.448;2022-12-17T17:23:00;-0.15;82.32
71291;DHT22;59073;51.994;4.448;2022-12-17T17:25:27;-0.11;81.78
71291;DHT22;59073;51.994;4.448;2022-12-17T17:27:57;-0.12;81.95
71291;DHT22;59073;51.994;4.448;2022-12-17T17:30:48;-0.23;82.35
71291;DHT22;59073;51.994;4.448;2022-12-17T17:33:36;-0.26;82.40
71291;DHT22;59073;51.994;4.448;2022-12-17T17:39:59;-0.49;83.13
71291;DHT22;59073;51.994;4.448;2022-12-17T17:49:20;-0.54;83.51
71291;DHT22;59073;51.994;4.448;2022-12-17T17:51:55;-0.62;83.97
71291;DHT22;59073;51.994;4.448;2022-12-17T17:54:42;-0.70;84.37
71291;DHT22;59073;51.994;4.448;2022-12-17T17:57:32;-0.70;84.12
71291;DHT22;59073;51.994;4.448;2022-12-17T18:00:04;-0.69;84.01
71291;DHT22;59073;51.994;4.448;2022-12-17T18:02:30;-0.73;84.32
71291;DHT22;59073;51.994;4.448;2022-12-17T18:04:59;-0.84;84.28
71291;DHT22;59073;51.994;4.448;2022-12-17T18:07:30;-0.88;85.41
71291;DHT22;59073;51.994;4.448;2022-12-17T18:10:01;-1.05;85.57
71291;DHT22;59073;51.994;4.448;2022-12-17T18:12:30;-1.02;86.22
71291;DHT22;59073;51.994;4.448;2022-12-17T18:15:14;-1.07;86.12
71291;DHT22;59073;51.994;4.448;2022-12-17T18:17:39;-1.04;86.21
71291;DHT22;59073;51.994;4.448;2022-12-17T18:20:05;-1.00;86.05
71291;DHT22;59073;51.994;4.448;2022-12-17T18:22:48;-1.02;86.21
71291;DHT22;59073;51.994;4.448;2022-12-17T18:25:42;-1.07;86.25
71291;DHT22;59073;51.994;4.448;2022-12-17T18:28:09;-1.04;86.43
71291;DHT22;59073;51.994;4.448;2022-12-17T18:30:37;-1.09;86.36
71291;DHT22;59073;51.994;4.448;2022-12-17T18:33:02;-1.08;86.59
71291;DHT22;59073;51.994;4.448;2022-12-17T18:35:28;-1.01;86.41
71291;DHT22;59073;51.994;4.448;2022-12-17T18:37:55;-0.88;86.49
71291;DHT22;59073;51.994;4.448;2022-12-17T18:40:37;-0.90;86.25